createdAt,value
2023-03-21T00:02:20.880Z,89.27
2023-03-21T00:04:53.583Z,89.23
2023-03-21T00:07:21.868Z,89.18
2023-03-21T00:09:49.849Z,89.17
2023-03-21T00:12:21.053Z,89.05
2023-03-21T00:14:49.088Z,88.99
2023-03-21T00:17:17.219Z,89.30
2023-03-21T00:19:46.351Z,89.08
2023-03-21T00:22:14.790Z,89.22
2023-03-21T00:24:42.781Z,89.19
2023-03-21T00:27:38.394Z,89.40
2023-03-21T00:29:58.753Z,89.20
2023-03-21T00:32:27.025Z,89.33
2023-03-21T00:35:06.757Z,89.33
2023-03-21T00:37:43.190Z,89.75
2023-03-21T00:40:25.323Z,89.70
2023-03-21T00:42:54.554Z,89.74
2023-03-21T00:45:22.886Z,90.14
2023-03-21T00:47:51.094Z,90.47
2023-03-21T00:50:19.470Z,90.57
2023-03-21T00:52:47.466Z,90.85
2023-03-21T00:55:18.291Z,91.04
2023-03-21T00:57:50.132Z,90.75
2023-03-21T01:00:21.315Z,90.80
2023-03-21T01:03:04.252Z,91.13
2023-03-21T01:05:56.757Z,91.14
2023-03-21T01:08:31.206Z,91.39
2023-03-21T01:11:07.340Z,91.40
2023-03-21T01:13:38.433Z,91.53
2023-03-21T01:16:09.871Z,91.74
2023-03-21T01:19:00.021Z,91.89
2023-03-21T01:21:28.164Z,91.63
2023-03-21T01:23:56.232Z,91.57
2023-03-21T01:26:24.323Z,91.48
2023-03-21T01:28:52.357Z,91.57
2023-03-21T01:31:20.919Z,91.55
2023-03-21T01:33:49.133Z,91.50
2023-03-21T01:36:23.725Z,91.80
2023-03-21T01:38:54.559Z,91.55
2023-03-21T01:41:43.421Z,91.88
2023-03-21T01:44:28.703Z,91.90
2023-03-21T01:47:11.189Z,91.86
2023-03-21T01:49:46.422Z,91.78
2023-03-21T01:52:36.431Z,91.98
2023-03-21T01:55:12.583Z,92.22
2023-03-21T01:58:04.746Z,92.41
2023-03-21T02:00:41.577Z,92.74
2023-03-21T02:03:33.336Z,92.41
2023-03-21T02:06:20.298Z,92.74
2023-03-21T02:08:49.462Z,92.70
2023-03-21T02:11:19.131Z,92.38
2023-03-21T02:13:48.736Z,92.51
2023-03-21T02:16:28.643Z,92.60
2023-03-21T02:19:08.191Z,92.97
2023-03-21T02:21:52.776Z,92.87
2023-03-21T02:24:29.015Z,92.99
2023-03-21T02:27:18.967Z,92.66
2023-03-21T02:29:49.716Z,92.50
2023-03-21T02:32:37.479Z,92.56
2023-03-21T02:35:28.656Z,92.90
2023-03-21T02:38:08.799Z,92.54
2023-03-21T02:40:45.755Z,92.54
2023-03-21T02:43:23.064Z,92.74
2023-03-21T02:46:08.542Z,93.07
2023-03-21T02:48:50.592Z,92.98
2023-03-21T02:51:23.994Z,92.87
2023-03-21T02:54:26.462Z,92.61
2023-03-21T02:56:56.785Z,92.60
2023-03-21T02:59:27.716Z,92.84
2023-03-21T03:01:56.498Z,92.79
2023-03-21T03:04:27.738Z,92.92
2023-03-21T03:07:01.237Z,92.78
2023-03-21T03:09:49.140Z,92.77
2023-03-21T03:12:31.423Z,92.76
2023-03-21T03:15:38.721Z,92.83
2023-03-21T03:18:09.799Z,92.92
2023-03-21T03:21:08.493Z,92.94
2023-03-21T03:24:22.901Z,93.08
2023-03-21T03:26:54.364Z,92.79
2023-03-21T03:29:24.107Z,92.89
2023-03-21T03:32:00.598Z,92.83
2023-03-21T03:34:39.607Z,92.66
2023-03-21T03:37:11.241Z,92.55
2023-03-21T03:39:57.457Z,92.42
2023-03-21T03:42:31.830Z,92.75
2023-03-21T03:45:10.834Z,92.73
2023-03-21T03:47:57.149Z,92.56
2023-03-21T03:50:32.692Z,92.38
2023-03-21T03:53:18.139Z,92.23
2023-03-21T03:55:49.084Z,92.41
2023-03-21T03:58:23.994Z,92.34
2023-03-21T04:00:55.476Z,92.76
2023-03-21T04:03:24.179Z,92.46
2023-03-21T04:05:54.190Z,92.28
2023-03-21T04:08:23.388Z,92.21
2023-03-21T04:10:53.915Z,92.31
2023-03-21T04:13:23.946Z,92.30
2023-03-21T04:16:03.806Z,92.34
2023-03-21T04:18:32.403Z,92.30
2023-03-21T04:21:18.366Z,92.14
2023-03-21T04:23:46.361Z,92.26
2023-03-21T04:26:14.596Z,92.41
2023-03-21T04:28:53.728Z,92.19
2023-03-21T04:31:27.435Z,92.40
2023-03-21T04:34:16.147Z,92.29
2023-03-21T04:36:51.096Z,92.29
2023-03-21T04:39:19.212Z,92.49
2023-03-21T04:41:50.133Z,92.42
2023-03-21T04:44:18.953Z,92.48
2023-03-21T04:46:47.599Z,92.74
2023-03-21T04:49:16.043Z,92.53
2023-03-21T04:51:45.444Z,92.78
2023-03-21T04:56:42.901Z,92.83
2023-03-21T04:59:14.683Z,92.87
2023-03-21T05:01:44.029Z,92.61
2023-03-21T05:04:14.765Z,92.66
2023-03-21T05:06:44.118Z,92.49
2023-03-21T05:09:13.748Z,92.52
2023-03-21T05:11:42.642Z,92.41
2023-03-21T05:14:17.047Z,92.59
2023-03-21T05:16:53.101Z,92.55
2023-03-21T05:19:24.891Z,92.57
2023-03-21T05:21:53.092Z,92.51
2023-03-21T05:24:23.214Z,92.54
2023-03-21T05:26:52.808Z,92.49
2023-03-21T05:29:27.941Z,92.53
2023-03-21T05:32:04.082Z,92.78
2023-03-21T05:34:32.281Z,92.83
2023-03-21T05:37:01.070Z,92.57
2023-03-21T05:39:39.037Z,92.63
2023-03-21T05:42:14.509Z,92.63
2023-03-21T05:44:42.502Z,92.57
2023-03-21T05:47:11.890Z,92.64
2023-03-21T05:49:47.285Z,92.77
2023-03-21T05:52:16.263Z,92.64
2023-03-21T05:54:46.359Z,92.79
2023-03-21T05:57:14.570Z,92.66
2023-03-21T06:00:12.412Z,92.83
2023-03-21T06:02:52.173Z,92.79
2023-03-21T06:05:38.386Z,92.93
2023-03-21T06:08:08.120Z,92.84
2023-03-21T06:10:36.421Z,92.83
2023-03-21T06:13:05.050Z,93.01
2023-03-21T06:15:35.348Z,93.03
2023-03-21T06:18:13.128Z,93.01
2023-03-21T06:20:43.842Z,93.19
2023-03-21T06:23:12.633Z,93.32
2023-03-21T06:25:40.926Z,93.50
2023-03-21T06:28:09.223Z,93.48
2023-03-21T06:30:40.817Z,93.33
2023-03-21T06:33:18.027Z,93.48
2023-03-21T06:35:54.635Z,93.69
2023-03-21T06:38:23.526Z,93.65
2023-03-21T06:40:52.184Z,93.78
2023-03-21T06:43:20.277Z,93.74
2023-03-21T06:45:48.313Z,93.73
2023-03-21T06:48:16.401Z,93.96
2023-03-21T06:50:52.832Z,93.92
2023-03-21T06:53:30.257Z,94.06
2023-03-21T06:56:22.436Z,94.10
2023-03-21T06:58:50.501Z,94.37
2023-03-21T07:01:44.540Z,94.23
2023-03-21T07:04:12.750Z,94.29
2023-03-21T07:06:41.004Z,94.38
2023-03-21T07:09:09.074Z,94.27
2023-03-21T07:11:37.789Z,94.38
2023-03-21T07:14:06.946Z,94.06
2023-03-21T07:16:35.479Z,94.12
2023-03-21T07:19:04.361Z,94.28
2023-03-21T07:21:32.984Z,94.32
2023-03-21T07:24:01.668Z,93.97
2023-03-21T07:26:29.676Z,93.89
2023-03-21T07:28:59.190Z,94.05
2023-03-21T07:31:28.637Z,93.93
2023-03-21T07:33:56.835Z,93.96
2023-03-21T07:36:24.976Z,93.96
2023-03-21T07:38:53.431Z,94.01
2023-03-21T07:41:24.677Z,93.95
2023-03-21T07:43:52.703Z,93.80
2023-03-21T07:46:21.014Z,93.87
2023-03-21T07:48:49.958Z,93.98
2023-03-21T07:51:17.910Z,93.84
2023-03-21T08:02:45.667Z,93.83
2023-03-21T08:05:13.643Z,93.78
2023-03-21T08:07:41.749Z,93.70
2023-03-21T08:10:11.684Z,93.58
2023-03-21T08:12:39.818Z,93.52
2023-03-21T08:15:08.744Z,93.61
2023-03-21T08:17:38.112Z,93.55
2023-03-21T08:20:09.110Z,93.81
2023-03-21T08:22:37.308Z,93.89
2023-03-21T08:25:08.142Z,94.02
2023-03-21T08:27:36.304Z,94.06
2023-03-21T08:30:04.775Z,94.16
2023-03-21T08:32:33.889Z,94.28
2023-03-21T08:35:03.093Z,94.33
2023-03-21T08:37:31.345Z,94.31
2023-03-21T08:39:59.546Z,94.60
2023-03-21T08:42:27.602Z,94.59
2023-03-21T08:44:55.764Z,94.67
2023-03-21T08:47:23.811Z,94.55
2023-03-21T08:49:51.821Z,94.50
2023-03-21T08:52:19.797Z,94.66
2023-03-21T08:54:48.557Z,94.46
2023-03-21T08:57:16.566Z,94.62
2023-03-21T08:59:47.224Z,94.60
2023-03-21T09:02:17.832Z,94.66
2023-03-21T09:04:45.994Z,94.58
2023-03-21T09:07:15.111Z,94.50
2023-03-21T09:09:43.699Z,94.70
2023-03-21T09:12:11.845Z,94.73
2023-03-21T09:14:40.019Z,94.70
2023-03-21T09:17:08.070Z,94.57
2023-03-21T09:19:36.139Z,94.56
2023-03-21T09:22:04.955Z,94.70
2023-03-21T09:24:33.059Z,94.67
2023-03-21T09:27:01.116Z,94.65
2023-03-21T09:29:32.472Z,94.71
2023-03-21T09:32:01.774Z,94.60
2023-03-21T09:34:29.951Z,94.56
2023-03-21T09:36:57.974Z,94.66
2023-03-21T09:39:27.264Z,94.78
2023-03-21T09:42:00.872Z,94.67
2023-03-21T09:45:05.012Z,94.67
2023-03-21T09:47:49.389Z,94.57
2023-03-21T09:50:27.225Z,94.62
2023-03-21T09:53:05.461Z,94.50
2023-03-21T09:55:36.908Z,94.65
2023-03-21T09:58:31.246Z,94.43
2023-03-21T10:01:08.976Z,94.51
2023-03-21T10:03:38.211Z,94.55
2023-03-21T10:06:15.389Z,94.59
2023-03-21T10:08:49.559Z,94.82
2023-03-21T10:11:22.211Z,94.83
2023-03-21T10:14:19.442Z,94.73
2023-03-21T10:16:55.037Z,94.80
2023-03-21T10:19:23.528Z,94.54
2023-03-21T10:22:00.850Z,94.55
2023-03-21T10:24:33.385Z,94.58
2023-03-21T10:27:03.105Z,94.26
2023-03-21T10:29:43.272Z,94.06
2023-03-21T10:32:15.425Z,93.71
2023-03-21T10:34:47.959Z,93.68
2023-03-21T10:37:16.993Z,93.54
2023-03-21T10:39:51.796Z,93.42
2023-03-21T10:42:24.834Z,93.11
2023-03-21T10:44:56.486Z,93.06
2023-03-21T10:47:30.233Z,93.16
2023-03-21T10:50:13.080Z,93.26
2023-03-21T10:52:50.851Z,93.09
2023-03-21T10:55:32.388Z,92.92
2023-03-21T10:58:08.758Z,92.81
2023-03-21T11:00:45.391Z,92.87
2023-03-21T11:03:29.514Z,92.76
2023-03-21T11:06:03.421Z,92.93
2023-03-21T11:08:39.022Z,93.04
2023-03-21T11:11:09.890Z,92.97
2023-03-21T11:13:43.730Z,92.97
2023-03-21T11:16:47.308Z,93.22
2023-03-21T11:19:25.816Z,93.27
2023-03-21T11:21:53.768Z,93.30
2023-03-21T11:24:22.034Z,93.09
2023-03-21T11:26:51.445Z,92.77
2023-03-21T11:29:36.309Z,92.45
2023-03-21T11:32:30.640Z,92.38
2023-03-21T11:35:17.684Z,92.54
2023-03-21T11:37:51.354Z,92.55
2023-03-21T11:40:21.829Z,92.52
2023-03-21T11:43:01.636Z,92.48
2023-03-21T11:45:33.711Z,92.61
2023-03-21T11:48:11.194Z,92.60
2023-03-21T11:50:47.312Z,92.58
2023-03-21T11:53:15.115Z,92.53
2023-03-21T11:56:09.682Z,92.51
2023-03-21T11:59:02.756Z,92.60
2023-03-21T12:01:57.323Z,92.58
2023-03-21T12:04:36.830Z,92.69
2023-03-21T12:07:41.599Z,92.82
2023-03-21T12:10:12.476Z,92.85
2023-03-21T12:13:08.477Z,92.79
2023-03-21T12:15:41.109Z,92.96
2023-03-21T12:18:29.888Z,92.83
2023-03-21T12:21:06.474Z,92.82
2023-03-21T12:23:59.482Z,92.88
2023-03-21T12:26:46.380Z,92.90
2023-03-21T12:29:26.529Z,92.70
2023-03-21T12:32:06.575Z,92.65
2023-03-21T12:34:48.434Z,92.29
2023-03-21T12:37:37.462Z,92.13
2023-03-21T12:40:17.430Z,92.15
2023-03-21T12:43:07.573Z,92.10
2023-03-21T12:45:46.986Z,92.05
2023-03-21T12:48:28.855Z,91.87
2023-03-21T12:51:01.582Z,91.78
2023-03-21T12:53:41.921Z,91.50
2023-03-21T12:56:18.767Z,90.85
2023-03-21T12:58:56.283Z,90.71
2023-03-21T13:01:25.399Z,90.78
2023-03-21T13:04:30.675Z,90.72
2023-03-21T13:07:03.078Z,90.74
2023-03-21T13:09:42.052Z,90.55
2023-03-21T13:12:26.223Z,90.68
2023-03-21T13:15:24.335Z,90.76
2023-03-21T13:18:02.165Z,90.80
2023-03-21T13:20:47.444Z,90.68
2023-03-21T13:23:15.544Z,90.67
2023-03-21T13:25:48.630Z,90.65
2023-03-21T13:28:27.605Z,90.47
2023-03-21T13:31:18.667Z,90.32
2023-03-21T13:33:49.901Z,90.43
2023-03-21T13:36:28.361Z,90.34
2023-03-21T13:39:03.007Z,90.22
2023-03-21T13:41:38.968Z,90.45
2023-03-21T13:44:22.305Z,90.36
2023-03-21T13:47:02.236Z,90.17
2023-03-21T13:49:33.339Z,90.27
2023-03-21T13:52:25.812Z,90.47
2023-03-21T13:54:58.716Z,90.42
2023-03-21T13:57:30.671Z,90.45
2023-03-21T14:00:33.483Z,90.44
2023-03-21T14:03:09.772Z,90.40
2023-03-21T14:05:39.465Z,90.43
2023-03-21T14:08:19.313Z,90.38
2023-03-21T14:10:58.241Z,90.45
2023-03-21T14:13:28.528Z,90.38
2023-03-21T14:16:06.825Z,90.37
2023-03-21T14:18:54.117Z,90.40
2023-03-21T14:21:29.789Z,90.37
2023-03-21T14:24:12.811Z,90.40
2023-03-21T14:26:44.652Z,90.54
2023-03-21T14:29:27.351Z,90.50
2023-03-21T14:31:57.417Z,90.54
2023-03-21T14:34:27.639Z,90.50
2023-03-21T14:36:58.652Z,90.60
2023-03-21T14:39:32.770Z,90.54
2023-03-21T14:42:11.772Z,90.66
2023-03-21T14:44:56.470Z,90.70
2023-03-21T14:47:28.580Z,90.44
2023-03-21T14:49:58.045Z,90.40
2023-03-21T14:52:32.763Z,90.41
2023-03-21T14:55:02.656Z,90.38
2023-03-21T14:57:33.319Z,90.35
2023-03-21T15:00:13.562Z,90.24
2023-03-21T15:02:46.054Z,90.31
2023-03-21T15:05:20.366Z,90.16
2023-03-21T15:08:01.061Z,90.22
2023-03-21T15:10:31.962Z,90.19
2023-03-21T15:13:02.614Z,90.33
2023-03-21T15:15:32.191Z,90.20
2023-03-21T15:18:05.391Z,90.21
2023-03-21T15:20:37.670Z,90.17
2023-03-21T15:23:28.639Z,90.02
2023-03-21T15:25:56.925Z,89.93
2023-03-21T15:28:26.260Z,89.83
2023-03-21T15:30:54.877Z,89.87
2023-03-21T15:33:25.112Z,89.94
2023-03-21T15:36:00.335Z,89.87
2023-03-21T15:38:41.066Z,89.61
2023-03-21T15:41:21.349Z,89.70
2023-03-21T15:44:01.950Z,89.76
2023-03-21T15:46:43.736Z,89.65
2023-03-21T15:49:25.474Z,89.43
2023-03-21T15:51:53.394Z,89.61
2023-03-21T15:54:30.935Z,89.58
2023-03-21T15:57:04.711Z,89.59
2023-03-21T15:59:36.567Z,89.46
2023-03-21T16:02:05.010Z,89.47
2023-03-21T16:04:58.316Z,89.52
2023-03-21T16:07:27.077Z,89.61
2023-03-21T16:10:01.530Z,89.53
2023-03-21T16:12:29.589Z,89.55
2023-03-21T16:14:57.480Z,89.62
2023-03-21T16:17:39.548Z,89.55
2023-03-21T16:20:20.243Z,89.57
2023-03-21T16:22:48.753Z,89.50
2023-03-21T16:25:16.972Z,89.58
2023-03-21T16:27:46.525Z,89.53
2023-03-21T16:30:18.155Z,89.47
2023-03-21T16:32:47.072Z,89.30
2023-03-21T16:35:15.681Z,89.48
2023-03-21T16:37:45.528Z,89.58
2023-03-21T16:40:27.685Z,89.53
2023-03-21T16:42:55.996Z,89.69
2023-03-21T16:45:25.877Z,89.68
2023-03-21T16:47:53.896Z,89.60
2023-03-21T16:50:21.934Z,89.46
2023-03-21T16:52:52.525Z,89.74
2023-03-21T16:55:20.632Z,89.55
2023-03-21T16:57:52.434Z,89.56
2023-03-21T17:00:25.075Z,89.85
2023-03-21T17:02:55.139Z,89.39
2023-03-21T17:05:28.288Z,89.43
2023-03-21T17:07:57.093Z,89.54
2023-03-21T17:10:27.908Z,89.55
2023-03-21T17:12:56.001Z,89.58
2023-03-21T17:15:24.062Z,89.69
2023-03-21T17:17:52.253Z,89.65
2023-03-21T17:20:21.777Z,89.48
2023-03-21T17:22:51.039Z,89.74
2023-03-21T17:25:19.753Z,89.62
2023-03-21T17:27:49.069Z,89.56
2023-03-21T17:30:27.518Z,89.36
2023-03-21T17:32:55.870Z,89.47
2023-03-21T17:35:25.370Z,89.58
2023-03-21T17:37:54.314Z,89.90
2023-03-21T17:40:28.447Z,89.53
2023-03-21T17:42:58.032Z,89.50
2023-03-21T17:45:26.255Z,89.64
2023-03-21T17:47:55.177Z,89.80
2023-03-21T17:50:27.339Z,89.78
2023-03-21T17:52:57.987Z,89.88
2023-03-21T17:55:26.327Z,89.89
2023-03-21T17:57:54.578Z,89.79
2023-03-21T18:00:25.534Z,89.85
2023-03-21T18:02:53.911Z,89.77
2023-03-21T18:05:26.682Z,89.73
2023-03-21T18:08:10.453Z,89.63
2023-03-21T18:10:41.314Z,89.43
2023-03-21T18:13:09.933Z,89.15
2023-03-21T18:15:38.566Z,88.98
2023-03-21T18:18:07.042Z,88.83
2023-03-21T18:20:51.341Z,88.57
2023-03-21T18:23:21.092Z,88.87
2023-03-21T18:25:49.790Z,88.92
2023-03-21T18:28:21.032Z,89.08
2023-03-21T18:31:08.600Z,89.05
2023-03-21T18:33:40.473Z,88.74
2023-03-21T18:36:10.064Z,88.47
2023-03-21T18:38:39.495Z,88.18
2023-03-21T18:41:08.630Z,88.27
2023-03-21T18:46:26.312Z,88.51
2023-03-21T18:48:55.218Z,88.34
2023-03-21T18:51:24.200Z,88.06
2023-03-21T18:53:52.986Z,87.72
2023-03-21T18:57:19.615Z,88.14
2023-03-21T18:59:09.624Z,88.17
2023-03-21T19:01:38.227Z,88.03
2023-03-21T19:04:20.774Z,87.80
2023-03-21T19:06:51.026Z,87.67
2023-03-21T19:09:19.780Z,87.51
2023-03-21T19:11:48.220Z,87.63
2023-03-21T19:14:17.980Z,87.48
2023-03-21T19:17:34.272Z,87.73
2023-03-21T19:19:34.961Z,87.96
2023-03-21T19:22:02.997Z,87.94
2023-03-21T19:24:31.276Z,87.76
2023-03-21T19:26:59.640Z,87.83
2023-03-21T19:29:27.744Z,87.68
2023-03-21T19:31:56.342Z,87.52
2023-03-21T19:34:24.446Z,87.22
2023-03-21T19:36:53.219Z,86.87
2023-03-21T19:39:22.774Z,87.10
2023-03-21T19:41:55.429Z,87.20
2023-03-21T19:44:32.829Z,86.81
2023-03-21T19:47:01.157Z,87.05
2023-03-21T19:49:52.138Z,87.38
2023-03-21T19:52:17.124Z,87.36
2023-03-21T19:54:45.121Z,87.32
2023-03-21T19:57:13.149Z,87.25
2023-03-21T19:59:42.049Z,87.29
2023-03-21T20:02:33.920Z,87.11
2023-03-21T20:05:00.614Z,86.73
2023-03-21T20:07:30.635Z,86.76
2023-03-21T20:09:59.088Z,86.79
2023-03-21T20:12:27.744Z,86.88
2023-03-21T20:15:09.567Z,86.87
2023-03-21T20:24:36.665Z,86.42
2023-03-21T20:27:04.648Z,86.31
2023-03-21T20:32:20.622Z,86.68
2023-03-21T20:34:49.014Z,86.64
2023-03-21T20:37:17.372Z,86.69
2023-03-21T20:39:45.951Z,86.69
2023-03-21T20:42:13.945Z,86.83
2023-03-21T20:44:57.490Z,86.52
2023-03-21T20:47:26.923Z,86.39
2023-03-21T20:49:56.945Z,86.07
2023-03-21T20:52:57.410Z,86.46
2023-03-21T20:55:14.772Z,86.30
2023-03-21T20:57:42.772Z,86.28
2023-03-21T21:00:17.527Z,86.20
2023-03-21T21:02:48.377Z,86.22
2023-03-21T21:05:28.355Z,86.27
2023-03-21T21:07:59.044Z,85.77
2023-03-21T21:10:29.426Z,85.85
2023-03-21T21:12:57.471Z,85.78
2023-03-21T21:15:25.659Z,85.81
2023-03-21T21:18:06.584Z,86.14
2023-03-21T21:20:36.600Z,86.26
2023-03-21T21:23:05.130Z,86.28
2023-03-21T21:25:34.652Z,86.10
2023-03-21T21:28:03.517Z,86.09
2023-03-21T21:30:34.000Z,85.93
2023-03-21T21:33:01.986Z,85.86
2023-03-21T21:35:30.349Z,85.85
2023-03-21T21:37:58.339Z,85.61
2023-03-21T21:40:26.324Z,85.12
2023-03-21T21:42:54.381Z,85.09
2023-03-21T21:45:22.442Z,85.21
2023-03-21T21:47:51.034Z,85.56
2023-03-21T21:50:22.039Z,85.64
2023-03-21T21:52:52.743Z,85.63
2023-03-21T21:55:23.595Z,85.59
2023-03-21T21:57:53.027Z,85.43
2023-03-21T22:00:21.738Z,85.09
2023-03-21T22:02:49.810Z,85.22
2023-03-21T22:05:19.039Z,85.32
2023-03-21T22:07:48.453Z,85.16
2023-03-21T22:10:16.518Z,85.15
2023-03-21T22:12:44.592Z,85.35
2023-03-21T22:15:13.262Z,85.39
2023-03-21T22:17:41.692Z,85.54
2023-03-21T22:20:12.795Z,85.54
2023-03-21T22:22:41.496Z,85.34
2023-03-21T22:25:12.621Z,85.70
2023-03-21T22:27:40.883Z,85.74
2023-03-21T22:30:13.855Z,85.94
2023-03-21T22:32:41.888Z,86.10
2023-03-21T22:35:11.156Z,85.89
2023-03-21T22:37:41.543Z,85.65
2023-03-21T22:40:13.184Z,85.41
2023-03-21T22:42:42.407Z,85.28
2023-03-21T22:45:12.807Z,85.64
2023-03-21T22:47:40.826Z,85.51
2023-03-21T22:50:09.688Z,85.65
2023-03-21T22:52:37.637Z,85.78
2023-03-21T22:55:06.323Z,85.94
2023-03-21T22:57:34.309Z,85.77
2023-03-21T23:00:03.144Z,85.68
2023-03-21T23:02:31.156Z,85.91
2023-03-21T23:04:59.082Z,85.77
2023-03-21T23:07:27.057Z,85.55
2023-03-21T23:09:56.572Z,85.30
2023-03-21T23:12:24.560Z,85.16
2023-03-21T23:14:52.571Z,85.43
2023-03-21T23:17:20.497Z,85.57
2023-03-21T23:19:48.507Z,85.51
2023-03-21T23:22:16.596Z,85.71
2023-03-21T23:24:44.547Z,85.79
2023-03-21T23:27:14.319Z,85.87
2023-03-21T23:29:43.936Z,85.88
2023-03-21T23:32:11.933Z,85.99
2023-03-21T23:34:39.879Z,86.31
2023-03-21T23:37:07.791Z,86.30
2023-03-21T23:39:35.771Z,86.35
2023-03-21T23:42:04.067Z,86.26
2023-03-21T23:44:32.227Z,86.06
2023-03-21T23:47:00.497Z,85.93
2023-03-21T23:49:29.179Z,85.94
2023-03-21T23:51:57.254Z,86.19
2023-03-21T23:54:25.310Z,86.27
2023-03-21T23:56:53.365Z,86.02
2023-03-21T23:59:21.298Z,86.03
